General Aviation Weather

Text Reports

Enter one or more of the following location identifiers separated by a space:

Zip Code, Four-Character ICAO or Three-Character IATA airport codes.

METAR - Aviation Routine Weather Report
KIKV - Ankeny, Iowa
Updated at 6:15 PM GMT on September 22, 2014 (1:15 PM CDT):
METAR KIKV 221815Z AUTO 00000KT 10SM CLR 20/10 A3029 RMK AO2
TAF - Terminal Area Forecast
KIKV - Ankeny, Iowa
Updated at 6:15 PM GMT on September 22, 2014 (1:15 PM CDT):
No TAF is currently available for this location.
Decoded:
No decoded TAF is available.
PIREP - Pilot Weather Report
KIKV - Ankeny, Iowa
Updated at 6:15 PM GMT on September 22, 2014 (1:15 PM CDT):
No PIREP is currently available for this location.
AIRMET - Airmens Meteorological Information
KIKV - Ankeny, Iowa
Updated at 6:15 PM GMT on September 22, 2014 (1:15 PM CDT):
No AIRMET is currently available for this location.
SIGMET - Significant Meteorological Information
KIKV - Ankeny, Iowa
Updated at 6:15 PM GMT on September 22, 2014 (1:15 PM CDT):
No SIGMET is currently available for this location.
NOTAM - Notice to Airmen
KIKV - Ankeny, Iowa
Updated at 6:15 PM GMT on September 22, 2014 (1:15 PM CDT):
No NOTAM is currently available for this location.
Forecast Area
KIKV - Ankeny, Iowa
Updated at 6:15 PM GMT on September 22, 2014 (1:15 PM CDT):
No NOTAM is currently available for this location.
Aviation Weather Maps